Time;durP1;ratioP1;P1;durP2;ratioP2;P2;SDS_P1;SDS_P2;PMS_P1;PMS_P2;Temp;Humidity;BMP_temperature;BMP_pressure;BME280_temperature;BME280_humidity;BME280_pressure;Samples;Min_cycle;Max_cycle;Signal;HPM_P1;HPM_P2
2022/03/24 00:02:06;;;;;;;176.27;83.00;;;;;;;;;;5065401;28;20050;-75
2022/03/24 00:04:32;;;;;;;196.05;87.55;;;;;;;;;;5065707;28;20371;-75
2022/03/24 00:06:59;;;;;;;185.68;86.18;;;;;;;;;;5065136;28;20028;-76
2022/03/24 00:09:25;;;;;;;197.60;89.53;;;;;;;;;;5064659;28;20040;-75
2022/03/24 00:11:51;;;;;;;194.15;89.03;;;;;;;;;;5064239;28;20115;-75
2022/03/24 00:14:18;;;;;;;184.23;89.20;;;;;;;;;;5066541;28;20021;-74
2022/03/24 00:16:44;;;;;;;190.47;92.53;;;;;;;;;;5066890;28;20028;-75
2022/03/24 00:19:11;;;;;;;176.63;85.77;;;;;;;;;;5061460;28;20394;-75
2022/03/24 00:21:37;;;;;;;181.30;90.80;;;;;;;;;;5068127;28;20374;-75
2022/03/24 00:24:04;;;;;;;185.70;89.03;;;;;;;;;;5069990;28;20044;-75
2022/03/24 00:26:30;;;;;;;182.55;88.88;;;;;;;;;;5073862;28;20099;-75
2022/03/24 00:28:57;;;;;;;197.98;97.97;;;;;;;;;;5075802;28;20032;-75
2022/03/24 00:31:23;;;;;;;144.10;76.88;;;;;;;;;;5075537;28;20032;-75
2022/03/24 00:33:50;;;;;;;149.43;76.35;;;;;;;;;;5057764;28;20035;-76
2022/03/24 00:36:16;;;;;;;117.38;61.80;;;;;;;;;;5072810;28;20036;-75
2022/03/24 00:38:43;;;;;;;107.82;56.70;;;;;;;;;;5075029;28;20455;-75
2022/03/24 00:41:09;;;;;;;84.70;46.67;;;;;;;;;;5070165;28;20362;-76
2022/03/24 00:43:36;;;;;;;67.82;37.40;;;;;;;;;;5073727;28;20094;-75
2022/03/24 00:46:04;;;;;;;59.97;34.10;;;;;;;;;;5075685;28;20041;-76
2022/03/24 00:48:30;;;;;;;46.67;26.03;;;;;;;;;;5074233;28;20081;-75
2022/03/24 00:50:56;;;;;;;48.53;28.15;;;;;;;;;;5075052;28;20033;-75
2022/03/24 00:53:23;;;;;;;43.40;25.27;;;;;;;;;;5075032;28;20048;-75
2022/03/24 00:55:50;;;;;;;48.80;27.27;;;;;;;;;;5055686;28;20593;-75
2022/03/24 00:58:16;;;;;;;50.30;26.40;;;;;;;;;;5073228;28;20029;-75
2022/03/24 01:00:42;;;;;;;38.33;23.97;;;;;;;;;;5078010;28;20021;-74
2022/03/24 01:03:09;;;;;;;41.47;23.85;;;;;;;;;;5075384;28;20025;-75
2022/03/24 01:05:37;;;;;;;31.57;20.33;;;;;;;;;;5072011;28;20024;-75
2022/03/24 01:08:05;;;;;;;36.93;21.80;;;;;;;;;;5073460;28;20071;-75
2022/03/24 01:10:32;;;;;;;37.57;23.97;;;;;;;;;;5073814;28;20034;-75
2022/03/24 01:13:02;;;;;;;36.00;21.67;;;;;;;;;;5071877;28;20360;-75
2022/03/24 01:15:30;;;;;;;36.07;21.47;;;;;;;;;;5074142;28;20107;-75
2022/03/24 01:17:59;;;;;;;37.03;22.67;;;;;;;;;;5065670;28;20383;-75
2022/03/24 01:20:26;;;;;;;34.13;21.57;;;;;;;;;;5064071;28;20521;-75
2022/03/24 01:23:00;;;;;;;34.40;21.53;;;;;;;;;;5070563;28;20041;-76
2022/03/24 01:25:29;;;;;;;36.87;22.77;;;;;;;;;;5072813;28;20082;-76
2022/03/24 01:27:56;;;;;;;34.63;21.23;;;;;;;;;;5073555;28;20028;-76
2022/03/24 01:30:22;;;;;;;35.20;23.97;;;;;;;;;;5073078;28;20025;-75
2022/03/24 01:32:48;;;;;;;46.47;26.20;;;;;;;;;;5071467;28;20170;-76
2022/03/24 01:35:15;;;;;;;35.90;22.20;;;;;;;;;;5068914;28;20029;-76
2022/03/24 01:37:42;;;;;;;48.23;28.33;;;;;;;;;;5065883;28;20036;-76
2022/03/24 01:40:09;;;;;;;50.33;29.27;;;;;;;;;;5065765;28;20106;-76
2022/03/24 01:42:37;;;;;;;46.13;28.97;;;;;;;;;;5068436;28;20062;-76
2022/03/24 01:45:04;;;;;;;53.23;30.47;;;;;;;;;;5070425;28;20125;-75
2022/03/24 01:47:32;;;;;;;55.30;29.20;;;;;;;;;;5074239;28;20466;-75
2022/03/24 01:49:58;;;;;;;52.00;30.90;;;;;;;;;;5074881;28;20036;-76
2022/03/24 01:52:25;;;;;;;58.90;29.73;;;;;;;;;;5069013;28;20043;-75
2022/03/24 01:54:56;;;;;;;52.53;28.30;;;;;;;;;;5066184;28;20177;-76
2022/03/24 01:57:23;;;;;;;52.47;28.07;;;;;;;;;;5065693;28;20029;-76
2022/03/24 01:59:49;;;;;;;47.87;28.20;;;;;;;;;;5072193;28;20069;-76
2022/03/24 02:02:16;;;;;;;52.07;30.80;;;;;;;;;;5072568;28;20024;-76
2022/03/24 02:04:43;;;;;;;55.93;32.07;;;;;;;;;;5064548;28;20505;-76
2022/03/24 02:07:13;;;;;;;50.27;29.63;;;;;;;;;;5065769;28;20449;-74
2022/03/24 02:09:40;;;;;;;52.23;29.67;;;;;;;;;;5073411;28;20322;-75
2022/03/24 02:12:10;;;;;;;52.33;31.70;;;;;;;;;;5073253;28;20032;-75
2022/03/24 02:14:37;;;;;;;53.15;31.42;;;;;;;;;;5072652;28;20035;-75
2022/03/24 02:17:04;;;;;;;53.73;32.30;;;;;;;;;;5069517;28;20409;-76
2022/03/24 02:19:31;;;;;;;52.60;32.80;;;;;;;;;;5065688;28;20070;-76
2022/03/24 02:22:01;;;;;;;65.10;34.47;;;;;;;;;;5067869;28;20032;-76
2022/03/24 02:24:31;;;;;;;50.13;30.57;;;;;;;;;;5068149;28;20031;-77
2022/03/24 02:26:59;;;;;;;57.42;30.90;;;;;;;;;;5066358;28;20025;-76
2022/03/24 02:29:25;;;;;;;64.20;34.03;;;;;;;;;;5064695;28;20082;-77
2022/03/24 02:31:52;;;;;;;62.53;33.77;;;;;;;;;;5069022;28;20533;-77
2022/03/24 02:34:38;;;;;;;59.67;33.57;;;;;;;;;;5068093;28;20029;-75
2022/03/24 02:37:08;;;;;;;55.70;33.28;;;;;;;;;;5063576;28;20032;-76
2022/03/24 02:39:39;;;;;;;66.57;36.50;;;;;;;;;;5065386;28;20441;-76
2022/03/24 02:42:05;;;;;;;69.23;35.00;;;;;;;;;;5065594;28;20032;-77
2022/03/24 02:44:31;;;;;;;59.73;34.30;;;;;;;;;;5066973;28;20105;-77
2022/03/24 02:47:00;;;;;;;58.27;32.60;;;;;;;;;;5065373;28;20483;-76
2022/03/24 02:49:28;;;;;;;47.87;28.43;;;;;;;;;;5069908;28;20075;-76
2022/03/24 02:51:55;;;;;;;55.80;32.70;;;;;;;;;;5068490;28;20040;-76
2022/03/24 02:54:22;;;;;;;53.27;31.30;;;;;;;;;;5065773;28;20521;-76
2022/03/24 02:56:49;;;;;;;47.70;27.63;;;;;;;;;;5074881;28;20032;-75
2022/03/24 02:59:16;;;;;;;38.87;25.53;;;;;;;;;;5070166;28;20020;-75
2022/03/24 03:01:51;;;;;;;40.08;24.80;;;;;;;;;;5061957;28;20064;-76
2022/03/24 03:04:18;;;;;;;38.80;24.33;;;;;;;;;;5060800;28;20119;-76
2022/03/24 03:06:45;;;;;;;39.35;25.30;;;;;;;;;;5061221;28;20033;-77
2022/03/24 03:09:16;;;;;;;46.50;26.35;;;;;;;;;;5063464;28;20028;-75
2022/03/24 03:11:46;;;;;;;38.87;24.73;;;;;;;;;;5064005;28;20029;-75
2022/03/24 03:14:13;;;;;;;43.20;27.03;;;;;;;;;;5062388;28;20507;-76
2022/03/24 03:16:44;;;;;;;33.33;22.42;;;;;;;;;;5064539;28;20056;-75
2022/03/24 03:19:11;;;;;;;42.38;25.77;;;;;;;;;;5063540;28;20031;-77
2022/03/24 03:21:39;;;;;;;40.92;22.88;;;;;;;;;;5063056;28;20041;-76
2022/03/24 03:24:06;;;;;;;48.33;24.15;;;;;;;;;;5065697;28;20463;-76
2022/03/24 03:26:33;;;;;;;43.35;23.40;;;;;;;;;;5059591;28;21273;-76
2022/03/24 03:28:59;;;;;;;41.45;22.38;;;;;;;;;;5061896;28;20037;-76
2022/03/24 03:31:26;;;;;;;45.33;25.05;;;;;;;;;;5064999;28;20037;-77
2022/03/24 03:33:52;;;;;;;31.38;19.40;;;;;;;;;;5064946;28;20016;-75
2022/03/24 03:36:19;;;;;;;35.08;20.40;;;;;;;;;;5067757;28;20131;-76
2022/03/24 03:38:45;;;;;;;35.45;22.15;;;;;;;;;;5066280;28;20047;-75
2022/03/24 03:41:14;;;;;;;31.45;21.50;;;;;;;;;;5062996;28;20044;-76
2022/03/24 03:43:40;;;;;;;31.75;23.55;;;;;;;;;;5062522;28;20048;-75
2022/03/24 03:46:08;;;;;;;34.20;22.23;;;;;;;;;;5047661;28;20079;-76
2022/03/24 03:48:35;;;;;;;30.50;19.33;;;;;;;;;;5057798;28;20024;-77
2022/03/24 03:51:02;;;;;;;25.63;19.08;;;;;;;;;;5063998;28;20119;-76
2022/03/24 03:53:29;;;;;;;31.17;18.92;;;;;;;;;;5062369;28;20413;-76
2022/03/24 03:55:55;;;;;;;34.53;23.02;;;;;;;;;;5066539;28;20043;-76
2022/03/24 03:58:21;;;;;;;37.38;23.75;;;;;;;;;;5063791;28;20036;-76
2022/03/24 04:00:55;;;;;;;41.53;26.33;;;;;;;;;;5065277;28;20099;-76
2022/03/24 04:03:29;;;;;;;39.60;24.92;;;;;;;;;;5063473;28;20039;-75
2022/03/24 04:05:56;;;;;;;39.00;24.55;;;;;;;;;;5067450;28;20477;-75
2022/03/24 04:08:23;;;;;;;38.40;26.85;;;;;;;;;;5068077;28;20033;-75
2022/03/24 04:10:49;;;;;;;43.30;26.38;;;;;;;;;;5061757;28;20382;-76
2022/03/24 04:13:17;;;;;;;39.35;25.83;;;;;;;;;;5064561;28;20522;-76
2022/03/24 04:15:44;;;;;;;40.05;27.05;;;;;;;;;;5063451;28;20032;-76
2022/03/24 04:18:10;;;;;;;36.83;25.20;;;;;;;;;;5065826;28;20023;-77
2022/03/24 04:20:36;;;;;;;40.03;25.90;;;;;;;;;;5063708;28;20374;-76
2022/03/24 04:23:05;;;;;;;41.42;28.48;;;;;;;;;;5063465;28;20031;-77
2022/03/24 04:25:31;;;;;;;41.72;26.88;;;;;;;;;;5065837;28;20033;-76
2022/03/24 04:27:58;;;;;;;42.33;27.88;;;;;;;;;;5062694;28;20040;-76
2022/03/24 04:30:26;;;;;;;41.38;27.85;;;;;;;;;;5063821;28;20576;-77
2022/03/24 04:32:52;;;;;;;41.00;27.20;;;;;;;;;;5044898;28;20033;-76
2022/03/24 04:35:19;;;;;;;37.65;25.70;;;;;;;;;;5063750;28;20294;-78
2022/03/24 04:37:45;;;;;;;41.22;26.35;;;;;;;;;;5062652;28;20020;-75
2022/03/24 04:40:12;;;;;;;43.35;27.33;;;;;;;;;;5065987;28;20028;-77
2022/03/24 04:42:41;;;;;;;45.20;27.70;;;;;;;;;;5066006;28;20086;-76
2022/03/24 04:45:09;;;;;;;43.88;28.92;;;;;;;;;;5065541;28;20033;-78
2022/03/24 04:47:35;;;;;;;42.88;26.85;;;;;;;;;;5067882;28;20058;-77
2022/03/24 04:50:02;;;;;;;39.30;27.60;;;;;;;;;;5066308;28;20655;-77
2022/03/24 04:52:29;;;;;;;37.35;27.95;;;;;;;;;;5065478;28;20353;-76
2022/03/24 04:54:55;;;;;;;35.70;25.13;;;;;;;;;;5064353;28;20032;-75
2022/03/24 04:57:21;;;;;;;40.80;25.80;;;;;;;;;;5066743;28;21613;-75
2022/03/24 04:59:48;;;;;;;37.30;27.52;;;;;;;;;;5064677;28;20017;-76
2022/03/24 05:02:15;;;;;;;40.95;27.50;;;;;;;;;;5060859;28;20021;-76
2022/03/24 05:04:42;;;;;;;44.08;28.63;;;;;;;;;;5063033;28;20541;-76
2022/03/24 05:07:09;;;;;;;42.85;27.10;;;;;;;;;;5060004;28;20029;-77
2022/03/24 05:09:35;;;;;;;37.65;24.10;;;;;;;;;;5059290;28;20029;-76
2022/03/24 05:12:02;;;;;;;37.88;24.45;;;;;;;;;;5057777;28;20078;-77
2022/03/24 05:14:28;;;;;;;35.78;23.90;;;;;;;;;;5061638;28;20025;-76
2022/03/24 05:16:54;;;;;;;34.15;21.73;;;;;;;;;;5060119;28;20699;-77
2022/03/24 05:19:21;;;;;;;36.70;21.45;;;;;;;;;;5058303;28;20025;-77
2022/03/24 05:21:47;;;;;;;34.92;22.85;;;;;;;;;;5038117;28;20490;-77
2022/03/24 05:24:17;;;;;;;33.47;22.73;;;;;;;;;;5055919;28;20731;-78
2022/03/24 05:26:43;;;;;;;46.63;24.90;;;;;;;;;;5063758;28;20033;-79
2022/03/24 05:29:10;;;;;;;39.00;21.80;;;;;;;;;;5064984;28;20029;-78
2022/03/24 05:31:37;;;;;;;40.67;25.50;;;;;;;;;;5065706;28;20481;-78
2022/03/24 05:34:04;;;;;;;43.55;26.23;;;;;;;;;;5066672;28;20665;-78
2022/03/24 05:36:30;;;;;;;41.55;23.83;;;;;;;;;;5068697;28;20035;-78
2022/03/24 05:38:57;;;;;;;45.75;27.80;;;;;;;;;;5055083;28;20024;-78
2022/03/24 05:41:23;;;;;;;40.80;23.80;;;;;;;;;;5063426;28;20108;-76
2022/03/24 05:44:06;;;;;;;46.80;26.92;;;;;;;;;;5064353;28;20369;-77
2022/03/24 05:46:36;;;;;;;43.20;23.00;;;;;;;;;;5060466;28;20025;-76
2022/03/24 05:49:05;;;;;;;44.15;26.90;;;;;;;;;;5056646;28;20421;-77
2022/03/24 05:51:32;;;;;;;47.65;26.85;;;;;;;;;;5059917;28;20032;-77
2022/03/24 05:53:58;;;;;;;43.83;27.23;;;;;;;;;;5056770;28;20021;-77
2022/03/24 05:56:24;;;;;;;46.95;27.45;;;;;;;;;;5053318;28;20060;-76
2022/03/24 05:58:51;;;;;;;48.22;28.75;;;;;;;;;;5056595;28;20987;-78
2022/03/24 06:01:18;;;;;;;42.85;27.05;;;;;;;;;;5054391;28;20028;-79
2022/03/24 06:03:45;;;;;;;34.67;23.23;;;;;;;;;;5059512;28;20097;-77
2022/03/24 06:06:13;;;;;;;34.03;21.85;;;;;;;;;;5059615;28;20036;-76
2022/03/24 06:08:42;;;;;;;38.53;22.80;;;;;;;;;;5059994;28;20039;-78
2022/03/24 06:11:13;;;;;;;34.95;22.55;;;;;;;;;;5060691;28;20035;-76
2022/03/24 06:13:40;;;;;;;42.03;26.13;;;;;;;;;;5055007;28;20021;-75
2022/03/24 06:16:06;;;;;;;44.85;28.45;;;;;;;;;;5059377;28;20117;-75
2022/03/24 06:18:35;;;;;;;42.33;27.63;;;;;;;;;;5064273;28;20036;-75
2022/03/24 06:21:01;;;;;;;42.47;28.60;;;;;;;;;;5061861;28;20620;-75
2022/03/24 06:23:28;;;;;;;43.55;26.13;;;;;;;;;;5056615;28;20025;-75
2022/03/24 06:25:54;;;;;;;53.88;34.55;;;;;;;;;;5060590;28;20036;-76
2022/03/24 06:28:20;;;;;;;62.13;40.33;;;;;;;;;;5060394;28;20028;-75
2022/03/24 06:30:47;;;;;;;57.63;37.42;;;;;;;;;;5063471;28;20035;-76
2022/03/24 06:33:15;;;;;;;58.85;37.30;;;;;;;;;;5056884;28;20402;-75
2022/03/24 06:35:41;;;;;;;62.15;40.75;;;;;;;;;;5054954;28;20032;-76
2022/03/24 06:38:07;;;;;;;63.55;41.85;;;;;;;;;;5060505;28;20097;-76
2022/03/24 06:40:34;;;;;;;61.13;39.35;;;;;;;;;;5058710;28;20382;-76
2022/03/24 06:43:00;;;;;;;57.70;36.10;;;;;;;;;;5056537;28;20051;-77
2022/03/24 06:45:26;;;;;;;57.35;37.53;;;;;;;;;;5058903;28;20029;-77
2022/03/24 06:47:53;;;;;;;60.75;39.90;;;;;;;;;;5057209;28;20032;-76
2022/03/24 06:50:19;;;;;;;47.95;32.78;;;;;;;;;;5057142;28;20159;-76
2022/03/24 06:52:46;;;;;;;52.45;34.28;;;;;;;;;;5065106;28;20486;-75
2022/03/24 06:55:16;;;;;;;50.03;31.33;;;;;;;;;;5057670;28;20025;-76
2022/03/24 06:57:42;;;;;;;44.97;29.85;;;;;;;;;;5054258;28;20047;-76
2022/03/24 07:00:13;;;;;;;48.50;29.50;;;;;;;;;;5061138;28;20519;-76
2022/03/24 07:02:39;;;;;;;39.20;25.98;;;;;;;;;;5064912;28;20038;-76
2022/03/24 07:05:07;;;;;;;36.50;24.40;;;;;;;;;;5063486;28;20452;-76
2022/03/24 07:07:34;;;;;;;43.25;26.95;;;;;;;;;;5064424;28;20391;-76
2022/03/24 07:10:00;;;;;;;41.03;26.02;;;;;;;;;;5062150;28;21587;-76
2022/03/24 07:12:27;;;;;;;42.15;26.10;;;;;;;;;;5059590;28;20630;-78
2022/03/24 07:14:53;;;;;;;34.22;23.13;;;;;;;;;;5057382;28;20375;-76
2022/03/24 07:17:19;;;;;;;41.03;25.63;;;;;;;;;;5063651;28;20051;-75
2022/03/24 07:19:46;;;;;;;36.33;23.60;;;;;;;;;;5061608;28;20028;-75
2022/03/24 07:22:12;;;;;;;39.50;24.95;;;;;;;;;;5062202;28;20398;-75
2022/03/24 07:24:38;;;;;;;40.10;24.73;;;;;;;;;;5058483;28;20094;-76
2022/03/24 07:27:05;;;;;;;40.72;26.45;;;;;;;;;;5059034;28;20070;-76
2022/03/24 07:29:31;;;;;;;37.30;23.63;;;;;;;;;;5062843;28;20043;-76
2022/03/24 07:31:59;;;;;;;36.55;21.67;;;;;;;;;;5061090;28;20059;-75
2022/03/24 07:34:26;;;;;;;35.50;22.52;;;;;;;;;;5057037;28;20639;-77
2022/03/24 07:36:52;;;;;;;33.72;22.92;;;;;;;;;;5050554;28;20078;-76
2022/03/24 07:39:19;;;;;;;31.02;19.02;;;;;;;;;;5059660;28;20103;-76
2022/03/24 07:41:45;;;;;;;33.15;21.27;;;;;;;;;;5061800;28;20301;-77
2022/03/24 07:44:12;;;;;;;32.15;19.38;;;;;;;;;;5058568;28;20521;-77
2022/03/24 07:46:38;;;;;;;28.63;20.45;;;;;;;;;;5062544;28;20077;-76
2022/03/24 07:49:04;;;;;;;30.85;19.58;;;;;;;;;;5061887;28;20645;-76
2022/03/24 07:51:34;;;;;;;26.00;17.67;;;;;;;;;;5060525;28;20093;-77
2022/03/24 07:54:02;;;;;;;30.70;19.52;;;;;;;;;;5059723;28;20025;-76
2022/03/24 07:56:29;;;;;;;29.75;19.40;;;;;;;;;;5061346;28;20025;-76
2022/03/24 07:58:56;;;;;;;29.73;20.10;;;;;;;;;;5064508;28;20024;-77
2022/03/24 08:01:30;;;;;;;39.40;22.35;;;;;;;;;;5061471;28;20360;-76
2022/03/24 08:03:58;;;;;;;38.08;24.33;;;;;;;;;;5038146;28;20490;-76
2022/03/24 08:06:24;;;;;;;34.85;22.23;;;;;;;;;;5057394;28;20543;-76
2022/03/24 08:08:51;;;;;;;35.45;21.17;;;;;;;;;;5060195;28;20028;-77
2022/03/24 08:11:17;;;;;;;32.15;21.33;;;;;;;;;;5065806;28;20048;-78
2022/03/24 08:13:47;;;;;;;33.13;19.45;;;;;;;;;;5063165;28;20021;-75
2022/03/24 08:16:14;;;;;;;29.95;19.45;;;;;;;;;;5050574;28;20074;-76
2022/03/24 08:18:40;;;;;;;30.42;21.48;;;;;;;;;;5054302;28;20024;-76
2022/03/24 08:21:06;;;;;;;26.63;17.40;;;;;;;;;;5059903;28;21119;-76
2022/03/24 08:23:32;;;;;;;23.05;16.95;;;;;;;;;;5060663;28;20043;-77
2022/03/24 08:25:59;;;;;;;27.00;18.90;;;;;;;;;;5058631;28;20029;-75
2022/03/24 08:28:25;;;;;;;25.33;17.13;;;;;;;;;;5059734;28;20033;-78
2022/03/24 08:30:51;;;;;;;18.05;12.38;;;;;;;;;;5058766;28;20021;-77
2022/03/24 08:33:18;;;;;;;23.15;14.48;;;;;;;;;;5055245;28;20382;-77
2022/03/24 08:35:44;;;;;;;19.58;12.63;;;;;;;;;;5057007;28;20020;-75
2022/03/24 08:38:10;;;;;;;17.88;11.43;;;;;;;;;;5053495;28;20069;-76
2022/03/24 08:47:11;;;;;;;18.10;11.20;;;;;;;;;;5063968;28;20075;-76
2022/03/24 08:49:37;;;;;;;18.63;11.98;;;;;;;;;;5029113;23;20065;-88
2022/03/24 08:52:04;;;;;;;20.98;13.52;;;;;;;;;;5018351;28;20124;-92
2022/03/24 08:54:30;;;;;;;20.30;12.43;;;;;;;;;;5038087;28;20021;-89
2022/03/24 08:57:00;;;;;;;19.40;13.15;;;;;;;;;;5025352;28;20056;-90
2022/03/24 08:59:29;;;;;;;20.65;13.65;;;;;;;;;;5033587;28;20041;-90
2022/03/24 09:01:56;;;;;;;20.70;13.77;;;;;;;;;;5035360;28;20029;-89
2022/03/24 09:04:32;;;;;;;20.35;13.38;;;;;;;;;;5024868;28;20029;-89
2022/03/24 09:06:59;;;;;;;22.73;14.75;;;;;;;;;;5034387;28;20033;-89
2022/03/24 09:09:25;;;;;;;23.33;14.23;;;;;;;;;;5046870;28;20056;-91
2022/03/24 09:12:15;;;;;;;20.40;13.20;;;;;;;;;;5024185;28;20068;-89
2022/03/24 09:14:44;;;;;;;20.38;13.55;;;;;;;;;;5014365;28;20091;-90
2022/03/24 09:17:12;;;;;;;20.80;14.25;;;;;;;;;;5033347;28;20025;-89
2022/03/24 09:20:00;;;;;;;18.75;14.35;;;;;;;;;;5044113;28;20017;-89
2022/03/24 09:22:30;;;;;;;21.88;14.82;;;;;;;;;;5046043;28;20025;-89
2022/03/24 09:24:57;;;;;;;21.27;14.15;;;;;;;;;;5035397;28;20037;-88
2022/03/24 09:27:24;;;;;;;19.23;14.30;;;;;;;;;;5018635;28;20026;-88
2022/03/24 09:29:50;;;;;;;18.38;14.23;;;;;;;;;;5016420;28;20028;-89
2022/03/24 09:32:20;;;;;;;19.98;14.73;;;;;;;;;;5035035;28;20068;-90
2022/03/24 09:34:48;;;;;;;21.25;15.25;;;;;;;;;;5032318;28;20038;-90
2022/03/24 09:37:17;;;;;;;24.83;16.23;;;;;;;;;;5020375;28;20026;-88
2022/03/24 09:39:44;;;;;;;20.27;15.32;;;;;;;;;;5037570;28;20426;-89
2022/03/24 09:42:17;;;;;;;20.27;14.35;;;;;;;;;;5032647;28;20079;-91
2022/03/24 09:44:45;;;;;;;23.15;14.52;;;;;;;;;;5034400;28;20026;-91
2022/03/24 09:47:16;;;;;;;20.27;14.55;;;;;;;;;;5015551;28;20480;-91
2022/03/24 09:49:45;;;;;;;24.33;15.25;;;;;;;;;;5031642;28;20127;-90
2022/03/24 09:52:13;;;;;;;22.13;14.52;;;;;;;;;;5033341;28;20030;-89
2022/03/24 09:54:50;;;;;;;23.38;13.40;;;;;;;;;;5025451;28;20456;-91
2022/03/24 09:57:17;;;;;;;21.13;14.00;;;;;;;;;;5016602;28;20550;-91
2022/03/24 09:59:46;;;;;;;27.77;16.33;;;;;;;;;;5018429;28;20030;-90
2022/03/24 10:02:16;;;;;;;24.98;16.27;;;;;;;;;;5018226;28;20029;-91
2022/03/24 10:04:51;;;;;;;24.25;17.25;;;;;;;;;;5038893;28;20033;-89
2022/03/24 10:07:40;;;;;;;24.13;16.15;;;;;;;;;;5019420;28;20029;-92
2022/03/24 10:10:06;;;;;;;25.63;16.48;;;;;;;;;;5034839;28;20057;-88
2022/03/24 10:12:36;;;;;;;23.17;16.65;;;;;;;;;;5021544;28;20052;-90
2022/03/24 10:15:04;;;;;;;23.63;16.15;;;;;;;;;;5002434;28;20487;-91
2022/03/24 10:17:34;;;;;;;25.05;18.55;;;;;;;;;;5021536;28;20033;-89
2022/03/24 10:20:18;;;;;;;;;;;;;;;;;;;;;
2022/03/24 10:23:06;;;;;;;21.98;16.73;;;;;;;;;;5035149;28;20363;-90
2022/03/24 10:25:43;;;;;;;22.00;15.75;;;;;;;;;;5033318;28;20033;-90
2022/03/24 10:28:28;;;;;;;21.52;15.27;;;;;;;;;;5020170;28;20021;-89
2022/03/24 10:31:05;;;;;;;20.13;13.75;;;;;;;;;;5040279;28;20083;-91
2022/03/24 10:33:34;;;;;;;23.00;15.88;;;;;;;;;;5024730;28;20036;-90
2022/03/24 10:36:08;;;;;;;18.33;13.98;;;;;;;;;;5037444;28;20053;-91
2022/03/24 10:38:39;;;;;;;20.75;14.35;;;;;;;;;;5047870;28;20029;-89
2022/03/24 10:41:13;;;;;;;17.27;11.40;;;;;;;;;;5035781;28;20030;-90
2022/03/24 10:43:50;;;;;;;19.73;13.18;;;;;;;;;;5031697;28;20037;-90
2022/03/24 10:46:18;;;;;;;19.65;13.70;;;;;;;;;;5042437;28;20040;-91
2022/03/24 10:48:48;;;;;;;23.75;13.45;;;;;;;;;;5047287;28;20048;-89
2022/03/24 10:51:27;;;;;;;24.83;14.05;;;;;;;;;;5028025;28;20048;-88
2022/03/24 10:54:12;;;;;;;19.70;13.88;;;;;;;;;;5032452;28;20026;-89
2022/03/24 10:57:00;;;;;;;;;;;;;;;;;;;;;
2022/03/24 10:59:28;;;;;;;23.38;15.35;;;;;;;;;;5045822;28;20117;-90
2022/03/24 11:02:23;;;;;;;;;;;;;;;;;;;;;
2022/03/24 11:04:53;;;;;;;28.15;17.08;;;;;;;;;;5030466;28;20444;-90
2022/03/24 11:07:26;;;;;;;22.92;15.32;;;;;;;;;;5017388;28;20033;-89
2022/03/24 11:10:00;;;;;;;19.92;13.13;;;;;;;;;;5016954;28;20036;-90
2022/03/24 11:12:38;;;;;;;;;;;;;;;;;;;;;
2022/03/24 11:15:07;;;;;;;17.77;12.63;;;;;;;;;;5032662;28;20027;-93
2022/03/24 11:17:43;;;;;;;23.08;12.98;;;;;;;;;;5019777;28;20041;-90
2022/03/24 11:20:30;;;;;;;16.77;11.13;;;;;;;;;;5038026;28;20029;-89
2022/03/24 11:23:07;;;;;;;18.55;12.30;;;;;;;;;;5029957;28;20112;-93
2022/03/24 11:25:36;;;;;;;16.35;10.93;;;;;;;;;;5019337;28;20040;-90
2022/03/24 11:28:14;;;;;;;;;;;;;;;;;;;;;
2022/03/24 11:30:50;;;;;;;18.58;11.18;;;;;;;;;;5027149;28;20029;-92
2022/03/24 11:33:26;;;;;;;19.45;13.05;;;;;;;;;;5013683;28;20025;-90
2022/03/24 11:35:52;;;;;;;22.52;13.77;;;;;;;;;;5014316;28;20025;-91
2022/03/24 11:38:20;;;;;;;22.35;15.20;;;;;;;;;;5018864;28;20361;-89
2022/03/24 11:40:47;;;;;;;25.50;14.93;;;;;;;;;;5021887;28;20033;-88
2022/03/24 11:43:25;;;;;;;20.55;13.80;;;;;;;;;;5020362;28;20048;-90
2022/03/24 11:45:59;;;;;;;20.33;14.23;;;;;;;;;;5035495;28;20068;-89
2022/03/24 11:48:37;;;;;;;20.40;12.15;;;;;;;;;;5028973;28;20088;-90
2022/03/24 11:51:06;;;;;;;23.50;13.95;;;;;;;;;;5012507;28;20349;-90
2022/03/24 11:53:40;;;;;;;29.23;18.85;;;;;;;;;;5011510;28;20087;-91
2022/03/24 11:56:06;;;;;;;28.73;18.20;;;;;;;;;;5011004;28;20025;-90
2022/03/24 11:58:32;;;;;;;27.23;17.95;;;;;;;;;;5014490;28;20037;-90
2022/03/24 12:01:23;;;;;;;26.88;18.17;;;;;;;;;;5010682;28;20057;-88
2022/03/24 12:03:58;;;;;;;39.80;25.92;;;;;;;;;;5029593;28;20069;-90
2022/03/24 12:06:43;;;;;;;47.03;34.65;;;;;;;;;;5023753;28;20036;-90
2022/03/24 12:09:10;;;;;;;54.47;37.55;;;;;;;;;;5009236;28;20049;-90
2022/03/24 12:11:38;;;;;;;61.00;41.58;;;;;;;;;;5012448;28;20477;-89
2022/03/24 12:14:06;;;;;;;60.85;40.88;;;;;;;;;;5016151;28;20030;-90
2022/03/24 12:16:33;;;;;;;55.67;38.65;;;;;;;;;;5021741;28;20084;-88
2022/03/24 12:19:00;;;;;;;45.65;30.92;;;;;;;;;;5010186;28;20493;-88
2022/03/24 12:21:30;;;;;;;37.33;26.55;;;;;;;;;;5008809;28;20029;-89
2022/03/24 12:24:16;;;;;;;33.85;22.73;;;;;;;;;;5021805;28;20018;-89
2022/03/24 12:26:48;;;;;;;32.45;21.83;;;;;;;;;;5016225;28;20084;-90
2022/03/24 12:29:16;;;;;;;39.90;25.67;;;;;;;;;;5017347;28;20034;-90
2022/03/24 12:31:59;;;;;;;47.20;27.73;;;;;;;;;;5019405;28;20041;-91
2022/03/24 12:34:44;;;;;;;30.75;20.67;;;;;;;;;;5017974;28;20124;-90
2022/03/24 12:37:29;;;;;;;39.80;25.95;;;;;;;;;;5020831;28;20030;-88
2022/03/24 12:40:09;;;;;;;58.08;39.05;;;;;;;;;;5027697;28;20056;-88
2022/03/24 12:42:48;;;;;;;68.82;44.22;;;;;;;;;;5012850;28;20022;-90
2022/03/24 12:45:36;;;;;;;72.57;45.53;;;;;;;;;;5018367;28;20029;-90
2022/03/24 12:48:10;;;;;;;70.43;46.22;;;;;;;;;;5035322;28;20040;-90
2022/03/24 12:50:43;;;;;;;65.43;44.78;;;;;;;;;;5014847;28;20037;-87
2022/03/24 12:53:12;;;;;;;69.03;45.80;;;;;;;;;;5017847;28;20030;-89
2022/03/24 12:55:40;;;;;;;69.22;44.95;;;;;;;;;;5013986;28;20028;-91
2022/03/24 12:58:10;;;;;;;61.33;37.88;;;;;;;;;;5010962;28;20123;-89
2022/03/24 13:00:40;;;;;;;56.97;38.75;;;;;;;;;;5009771;28;20033;-91
2022/03/24 13:03:07;;;;;;;59.05;39.65;;;;;;;;;;5016637;28;20037;-90
2022/03/24 13:05:34;;;;;;;55.00;39.28;;;;;;;;;;5012854;28;20032;-89
2022/03/24 13:08:04;;;;;;;63.92;40.92;;;;;;;;;;5016909;28;20037;-88
2022/03/24 13:10:33;;;;;;;68.57;41.63;;;;;;;;;;5015826;28;20029;-88
2022/03/24 13:13:00;;;;;;;58.13;39.70;;;;;;;;;;5015850;28;20109;-90
2022/03/24 13:15:33;;;;;;;53.95;40.08;;;;;;;;;;5016139;28;20088;-89
2022/03/24 13:18:01;;;;;;;60.92;38.65;;;;;;;;;;5032214;28;20024;-89
2022/03/24 13:20:29;;;;;;;61.95;39.42;;;;;;;;;;5014554;28;20022;-91
2022/03/24 13:23:00;;;;;;;60.50;39.10;;;;;;;;;;5015560;28;20058;-89
2022/03/24 13:25:29;;;;;;;59.60;40.72;;;;;;;;;;5015115;28;20058;-90
2022/03/24 13:27:55;;;;;;;59.00;39.95;;;;;;;;;;5014936;28;21829;-89
2022/03/24 13:30:24;;;;;;;73.28;44.70;;;;;;;;;;5018970;28;20036;-88
2022/03/24 13:32:52;;;;;;;69.38;44.67;;;;;;;;;;5015170;28;20033;-91
2022/03/24 13:35:22;;;;;;;71.47;43.55;;;;;;;;;;5020278;28;20025;-91
2022/03/24 13:37:53;;;;;;;70.18;44.63;;;;;;;;;;5019279;28;20111;-88
2022/03/24 13:40:25;;;;;;;60.70;38.75;;;;;;;;;;5019033;28;20370;-88
2022/03/24 13:42:51;;;;;;;56.22;37.47;;;;;;;;;;5023905;28;20021;-90
2022/03/24 13:45:18;;;;;;;51.28;33.33;;;;;;;;;;5020830;28;20034;-89
2022/03/24 13:47:46;;;;;;;50.85;33.13;;;;;;;;;;5023962;28;20045;-88
2022/03/24 13:50:17;;;;;;;48.15;33.08;;;;;;;;;;5025552;28;20101;-88
2022/03/24 13:52:44;;;;;;;52.20;33.72;;;;;;;;;;5012117;28;20038;-89
2022/03/24 13:55:16;;;;;;;54.15;35.90;;;;;;;;;;5032824;28;20441;-88
2022/03/24 13:57:48;;;;;;;55.83;35.22;;;;;;;;;;5024637;28;20026;-89
2022/03/24 14:00:25;;;;;;;56.17;35.85;;;;;;;;;;5013167;28;20030;-89
2022/03/24 14:02:55;;;;;;;53.78;33.15;;;;;;;;;;5014858;28;20026;-92
2022/03/24 14:05:22;;;;;;;49.97;32.55;;;;;;;;;;5016450;28;20029;-89
2022/03/24 14:07:59;;;;;;;53.20;33.42;;;;;;;;;;5013578;28;20054;-91
2022/03/24 14:10:44;;;;;;;57.78;36.47;;;;;;;;;;5012058;28;20479;-88
2022/03/24 14:13:18;;;;;;;57.53;36.05;;;;;;;;;;5007260;28;20030;-91
2022/03/24 14:15:44;;;;;;;60.55;39.10;;;;;;;;;;5014940;28;20370;-91
2022/03/24 14:18:18;;;;;;;58.58;38.72;;;;;;;;;;5024738;28;20018;-88
2022/03/24 14:20:51;;;;;;;59.03;37.33;;;;;;;;;;5022024;28;20030;-88
2022/03/24 14:23:44;;;;;;;54.35;34.78;;;;;;;;;;5019559;28;20025;-89
2022/03/24 14:26:12;;;;;;;55.03;35.20;;;;;;;;;;5021022;28;20040;-90
2022/03/24 14:28:40;;;;;;;60.15;36.63;;;;;;;;;;5015277;28;20048;-90
2022/03/24 14:31:12;;;;;;;58.15;38.85;;;;;;;;;;5017009;28;20469;-89
2022/03/24 14:33:50;;;;;;;67.93;42.35;;;;;;;;;;5026460;28;20026;-89
2022/03/24 14:36:18;;;;;;;67.65;46.10;;;;;;;;;;5017719;28;20026;-89
2022/03/24 14:39:03;;;;;;;66.43;44.10;;;;;;;;;;5016357;28;20053;-89
2022/03/24 14:41:29;;;;;;;79.60;49.17;;;;;;;;;;5023636;28;20026;-91